createdAt,value
2018-12-04T00:01:32.673Z,95.40
2018-12-04T00:04:01.624Z,95.40
2018-12-04T00:06:30.605Z,95.40
2018-12-04T00:08:59.549Z,95.30
2018-12-04T00:11:28.535Z,95.30
2018-12-04T00:13:57.501Z,95.30
2018-12-04T00:16:26.456Z,95.20
2018-12-04T00:18:55.422Z,95.20
2018-12-04T00:21:24.458Z,95.10
2018-12-04T00:23:53.632Z,95.00
2018-12-04T00:26:22.569Z,95.00
2018-12-04T00:28:51.553Z,94.90
2018-12-04T00:31:20.514Z,94.80
2018-12-04T00:33:49.448Z,94.80
2018-12-04T00:36:18.481Z,94.70
2018-12-04T00:38:47.429Z,94.80
2018-12-04T00:41:16.369Z,94.70
2018-12-04T00:43:45.336Z,94.80
2018-12-04T00:46:14.293Z,94.90
2018-12-04T00:48:43.262Z,95.20
2018-12-04T00:51:12.338Z,95.40
2018-12-04T00:53:41.320Z,95.60
2018-12-04T00:56:10.358Z,95.60
2018-12-04T00:58:39.411Z,95.60
2018-12-04T01:01:09.140Z,95.50
2018-12-04T01:03:38.093Z,95.50
2018-12-04T01:06:07.185Z,95.60
2018-12-04T01:08:36.625Z,95.60
2018-12-04T01:11:05.582Z,95.50
2018-12-04T01:13:34.565Z,95.40
2018-12-04T01:16:03.523Z,95.50
2018-12-04T01:18:32.505Z,95.40
2018-12-04T01:21:01.454Z,95.30
2018-12-04T01:23:30.458Z,95.40
2018-12-04T01:25:59.456Z,95.50
2018-12-04T01:28:28.510Z,95.50
2018-12-04T01:30:57.485Z,95.60
2018-12-04T01:33:26.435Z,95.60
2018-12-04T01:35:55.436Z,95.70
2018-12-04T01:38:24.381Z,95.70
2018-12-04T01:40:53.337Z,96.20
2018-12-04T01:43:22.322Z,96.10
2018-12-04T01:45:52.182Z,96.00
2018-12-04T01:48:21.153Z,96.10
2018-12-04T01:50:50.142Z,95.90
2018-12-04T01:53:19.093Z,95.80
2018-12-04T01:55:48.049Z,95.80
2018-12-04T01:58:17.110Z,95.80
2018-12-04T02:00:46.061Z,95.80
2018-12-04T02:03:15.040Z,96.00
2018-12-04T02:05:44.045Z,95.80
2018-12-04T02:08:12.992Z,95.70
2018-12-04T02:10:42.037Z,95.70
2018-12-04T02:13:12.179Z,95.70
2018-12-04T02:15:41.117Z,95.90
2018-12-04T02:18:10.072Z,95.70
2018-12-04T02:20:39.134Z,95.80
2018-12-04T02:23:08.085Z,96.00
2018-12-04T02:25:37.057Z,95.80
2018-12-04T02:28:06.201Z,95.90
2018-12-04T02:30:35.167Z,95.80
2018-12-04T02:33:04.113Z,96.00
2018-12-04T02:35:33.129Z,96.00
2018-12-04T02:38:02.074Z,96.00
2018-12-04T02:40:31.062Z,96.00
2018-12-04T02:43:00.082Z,96.10
2018-12-04T02:45:29.091Z,96.00
2018-12-04T02:47:58.042Z,95.90
2018-12-04T02:50:27.030Z,96.00
2018-12-04T02:52:55.989Z,96.20
2018-12-04T02:55:24.959Z,96.20
2018-12-04T02:57:53.990Z,96.20
2018-12-04T03:00:22.963Z,96.10
2018-12-04T03:02:52.184Z,96.10
2018-12-04T03:05:21.281Z,96.10
2018-12-04T03:07:50.358Z,95.60
2018-12-04T03:10:19.393Z,95.00
2018-12-04T03:12:48.358Z,95.00
2018-12-04T03:15:17.301Z,94.50
2018-12-04T03:17:46.315Z,93.60
2018-12-04T03:20:15.354Z,93.50
2018-12-04T03:22:45.485Z,92.90
2018-12-04T03:25:14.469Z,92.70
2018-12-04T03:27:43.412Z,93.00
2018-12-04T03:30:13.557Z,93.10
2018-12-04T03:32:42.524Z,92.50
2018-12-04T03:35:11.457Z,92.80
2018-12-04T03:37:40.449Z,92.60
2018-12-04T03:40:10.046Z,92.70
2018-12-04T03:42:39.009Z,92.00
2018-12-04T03:45:08.321Z,92.30
2018-12-04T03:47:37.263Z,92.30
2018-12-04T03:50:06.637Z,92.20
2018-12-04T03:52:35.605Z,92.30
2018-12-04T03:55:04.769Z,92.00
2018-12-04T03:57:33.709Z,92.10
2018-12-04T04:00:02.685Z,91.80
2018-12-04T04:02:31.750Z,92.10
2018-12-04T04:05:00.729Z,91.80
2018-12-04T04:07:29.786Z,92.40
2018-12-04T04:09:58.721Z,92.00
2018-12-04T04:12:27.669Z,92.30
2018-12-04T04:14:56.674Z,92.10
2018-12-04T04:17:25.613Z,91.80
2018-12-04T04:19:54.869Z,92.10
2018-12-04T04:22:23.828Z,92.20
2018-12-04T04:24:52.802Z,92.10
2018-12-04T04:27:21.814Z,92.20
2018-12-04T04:29:50.770Z,92.40
2018-12-04T04:32:19.739Z,92.40
2018-12-04T04:34:48.680Z,92.10
2018-12-04T04:37:17.669Z,92.40
2018-12-04T04:39:46.616Z,92.50
2018-12-04T04:42:15.574Z,92.50
2018-12-04T04:44:44.537Z,92.50
2018-12-04T04:47:13.473Z,92.40
2018-12-04T04:49:42.435Z,92.40
2018-12-04T04:52:11.378Z,92.70
2018-12-04T04:54:40.396Z,92.40
2018-12-04T04:57:09.443Z,92.70
2018-12-04T04:59:38.387Z,92.50
2018-12-04T05:02:07.357Z,92.80
2018-12-04T05:04:36.298Z,92.30
2018-12-04T05:07:05.261Z,92.50
2018-12-04T05:09:34.209Z,92.40
2018-12-04T05:12:03.273Z,92.50
2018-12-04T05:14:32.209Z,92.20
2018-12-04T05:17:01.254Z,92.50
2018-12-04T05:19:30.273Z,92.00
2018-12-04T05:21:59.285Z,92.00
2018-12-04T05:24:28.315Z,92.50
2018-12-04T05:26:57.305Z,92.30
2018-12-04T05:29:26.246Z,92.30
2018-12-04T05:31:55.218Z,92.60
2018-12-04T05:34:24.153Z,92.50
2018-12-04T05:36:53.154Z,92.40
2018-12-04T05:39:22.111Z,92.50
2018-12-04T05:41:52.509Z,92.40
2018-12-04T05:44:21.461Z,92.40
2018-12-04T05:46:50.437Z,92.50
2018-12-04T05:49:19.386Z,92.20
2018-12-04T05:51:48.665Z,92.20
2018-12-04T05:54:18.667Z,92.10
2018-12-04T05:56:47.615Z,92.40
2018-12-04T05:59:16.578Z,92.30
2018-12-04T06:01:45.526Z,92.20
2018-12-04T06:04:14.491Z,92.00
2018-12-04T06:06:43.537Z,92.00
2018-12-04T06:09:12.537Z,92.00
2018-12-04T06:11:41.485Z,92.00
2018-12-04T06:14:10.581Z,91.70
2018-12-04T06:16:39.674Z,92.10
2018-12-04T06:19:08.614Z,91.40
2018-12-04T06:21:37.580Z,91.60
2018-12-04T06:24:06.693Z,91.50
2018-12-04T06:26:35.681Z,91.40
2018-12-04T06:29:04.609Z,91.40
2018-12-04T06:31:33.573Z,91.50
2018-12-04T06:34:02.607Z,91.00
2018-12-04T06:36:31.573Z,91.40
2018-12-04T06:39:00.613Z,91.40
2018-12-04T06:41:29.578Z,91.50
2018-12-04T06:43:58.526Z,91.30
2018-12-04T06:46:27.509Z,91.50
2018-12-04T06:48:56.457Z,91.50
2018-12-04T06:51:25.593Z,91.20
2018-12-04T06:53:54.563Z,91.20
2018-12-04T06:56:23.525Z,91.30
2018-12-04T06:58:52.493Z,91.00
2018-12-04T07:01:21.433Z,91.00
2018-12-04T07:03:50.447Z,90.90
2018-12-04T07:06:19.410Z,90.90
2018-12-04T07:08:48.377Z,90.80
2018-12-04T07:11:17.511Z,90.80
2018-12-04T07:13:46.473Z,90.80
2018-12-04T07:16:15.533Z,90.70
2018-12-04T07:18:44.897Z,90.80
2018-12-04T07:21:13.842Z,90.70
2018-12-04T07:23:42.794Z,90.70
2018-12-04T07:26:11.889Z,90.80
2018-12-04T07:28:40.830Z,91.00
2018-12-04T07:31:09.775Z,90.90
2018-12-04T07:33:38.758Z,91.20
2018-12-04T07:36:07.702Z,91.00
2018-12-04T07:38:36.653Z,91.00
2018-12-04T07:41:06.502Z,91.00
2018-12-04T07:43:35.614Z,91.10
2018-12-04T07:46:04.650Z,91.10
2018-12-04T07:48:33.645Z,91.10
2018-12-04T07:51:02.993Z,91.30
2018-12-04T07:53:31.936Z,91.30
2018-12-04T07:56:00.932Z,91.40
2018-12-04T07:58:29.885Z,91.60
2018-12-04T08:00:58.825Z,91.80
2018-12-04T08:03:27.839Z,91.60
2018-12-04T08:05:56.792Z,91.70
2018-12-04T08:08:25.733Z,91.80
2018-12-04T08:10:54.729Z,91.70
2018-12-04T08:13:23.849Z,91.70
2018-12-04T08:15:52.789Z,91.80
2018-12-04T08:18:22.257Z,91.80
2018-12-04T08:20:51.303Z,91.70
2018-12-04T08:23:20.307Z,91.70
2018-12-04T08:25:49.529Z,91.70
2018-12-04T08:28:18.686Z,91.80
2018-12-04T08:30:48.719Z,91.70
2018-12-04T08:33:17.780Z,91.80
2018-12-04T08:35:46.818Z,91.60
2018-12-04T08:38:16.261Z,91.50
2018-12-04T08:40:45.383Z,91.50
2018-12-04T08:43:14.508Z,91.60
2018-12-04T08:45:43.633Z,91.50
2018-12-04T08:48:12.745Z,91.40
2018-12-04T08:50:41.777Z,91.40
2018-12-04T08:53:12.116Z,91.40
2018-12-04T08:55:41.434Z,91.20
2018-12-04T08:58:11.362Z,91.10
2018-12-04T09:00:41.293Z,91.00
2018-12-04T09:03:10.489Z,90.80
2018-12-04T09:05:39.590Z,90.80
2018-12-04T09:08:09.503Z,90.50
2018-12-04T09:10:38.926Z,90.90
2018-12-04T09:13:08.114Z,90.20
2018-12-04T09:15:37.327Z,90.50
2018-12-04T09:18:06.726Z,90.60
2018-12-04T09:20:37.199Z,90.60
2018-12-04T09:23:06.658Z,90.20
2018-12-04T09:25:36.488Z,89.50
2018-12-04T09:28:05.840Z,90.30
2018-12-04T09:30:35.345Z,90.30
2018-12-04T09:33:04.847Z,89.70
2018-12-04T09:35:34.160Z,90.40
2018-12-04T09:38:03.487Z,90.00
2018-12-04T09:40:32.956Z,89.40
2018-12-04T09:43:04.344Z,89.50
2018-12-04T09:45:34.015Z,90.00
2018-12-04T09:48:04.010Z,90.10
2018-12-04T09:50:34.564Z,90.00
2018-12-04T09:53:03.859Z,90.10
2018-12-04T09:55:34.548Z,89.60
2018-12-04T09:58:04.109Z,89.10
2018-12-04T10:00:33.543Z,89.10
2018-12-04T10:03:03.204Z,87.40
2018-12-04T10:05:33.620Z,87.20
2018-12-04T10:08:03.388Z,86.60
2018-12-04T10:10:32.793Z,86.50
2018-12-04T10:13:02.093Z,85.40
2018-12-04T10:15:31.274Z,84.50
2018-12-04T10:18:01.354Z,85.30
2018-12-04T10:20:30.858Z,84.30
2018-12-04T10:23:00.262Z,85.20
2018-12-04T10:25:29.709Z,85.10
2018-12-04T10:27:59.335Z,85.00
2018-12-04T10:30:28.725Z,83.80
2018-12-04T10:32:58.502Z,83.90
2018-12-04T10:35:28.528Z,84.30
2018-12-04T10:37:58.083Z,83.90
2018-12-04T10:40:28.813Z,82.00
2018-12-04T10:42:59.334Z,82.40
2018-12-04T10:45:29.457Z,82.90
2018-12-04T10:47:58.776Z,82.00
2018-12-04T10:50:29.059Z,82.30
2018-12-04T10:52:59.196Z,82.80
2018-12-04T10:55:29.411Z,81.90
2018-12-04T10:57:58.542Z,81.80
2018-12-04T11:00:33.141Z,80.80
2018-12-04T11:03:08.715Z,82.10
2018-12-04T11:05:38.236Z,81.80
2018-12-04T11:08:07.551Z,82.70
2018-12-04T11:10:37.641Z,81.50
2018-12-04T11:13:07.170Z,81.70
2018-12-04T11:15:36.153Z,80.20
2018-12-04T11:18:05.289Z,80.30
2018-12-04T11:20:34.269Z,80.00
2018-12-04T11:23:03.239Z,80.20
2018-12-04T11:25:33.066Z,78.00
2018-12-04T11:28:03.377Z,78.10
2018-12-04T11:30:32.386Z,79.50
2018-12-04T11:33:01.366Z,78.80
2018-12-04T11:35:30.430Z,77.90
2018-12-04T11:38:00.081Z,77.00
2018-12-04T11:40:29.069Z,78.80
2018-12-04T11:42:58.259Z,78.60
2018-12-04T11:45:28.889Z,78.80
2018-12-04T11:47:58.554Z,78.00
2018-12-04T11:50:27.530Z,76.90
2018-12-04T11:52:56.555Z,79.60
2018-12-04T11:55:25.632Z,79.60
2018-12-04T11:57:54.590Z,78.70
2018-12-04T12:00:28.517Z,78.90
2018-12-04T12:02:57.481Z,79.40
2018-12-04T12:05:27.519Z,78.30
2018-12-04T12:07:58.474Z,77.50
2018-12-04T12:10:28.771Z,76.40
2018-12-04T12:12:57.713Z,78.50
2018-12-04T12:15:26.706Z,76.80
2018-12-04T12:17:55.666Z,76.40
2018-12-04T12:20:24.609Z,77.00
2018-12-04T12:22:53.577Z,76.20
2018-12-04T12:25:22.526Z,75.80
2018-12-04T12:27:51.615Z,76.80
2018-12-04T12:30:20.771Z,76.90
2018-12-04T12:32:49.819Z,73.40
2018-12-04T12:35:18.843Z,74.50
2018-12-04T12:37:48.836Z,74.30
2018-12-04T12:40:17.810Z,73.80
2018-12-04T12:42:46.798Z,73.00
2018-12-04T12:45:15.781Z,72.60
2018-12-04T12:47:44.733Z,73.20
2018-12-04T12:50:13.750Z,72.60
2018-12-04T12:52:42.712Z,72.30
2018-12-04T12:55:12.017Z,72.50
2018-12-04T12:57:40.985Z,73.20
2018-12-04T13:00:10.414Z,74.40
2018-12-04T13:02:40.661Z,73.20
2018-12-04T13:05:09.709Z,72.60
2018-12-04T13:07:39.783Z,73.10
2018-12-04T13:10:10.516Z,73.60
2018-12-04T13:12:39.484Z,72.20
2018-12-04T13:15:09.066Z,74.40
2018-12-04T13:17:38.030Z,72.90
2018-12-04T13:20:07.596Z,74.20
2018-12-04T13:22:36.927Z,71.90
2018-12-04T13:25:07.050Z,73.00
2018-12-04T13:27:36.412Z,69.20
2018-12-04T13:30:07.698Z,68.80
2018-12-04T13:32:37.653Z,67.40
2018-12-04T13:35:06.859Z,68.20
2018-12-04T13:37:35.897Z,68.00
2018-12-04T13:40:08.599Z,68.80
2018-12-04T13:42:37.418Z,68.10
2018-12-04T13:45:07.357Z,67.70
2018-12-04T13:47:36.334Z,69.20
2018-12-04T13:50:05.676Z,67.80
2018-12-04T13:52:34.655Z,68.20
2018-12-04T13:55:03.866Z,69.00
2018-12-04T13:57:32.850Z,68.60
2018-12-04T14:00:01.851Z,68.70
2018-12-04T14:02:30.817Z,68.50
2018-12-04T14:04:59.803Z,69.50
2018-12-04T14:07:28.752Z,69.20
2018-12-04T14:09:57.734Z,70.10
2018-12-04T14:12:26.859Z,70.00
2018-12-04T14:14:55.837Z,69.90
2018-12-04T14:17:24.873Z,70.90
2018-12-04T14:19:53.841Z,71.50
2018-12-04T14:22:22.802Z,70.80
2018-12-04T14:24:51.991Z,72.50
2018-12-04T14:27:20.986Z,71.70
2018-12-04T14:29:49.988Z,73.00
2018-12-04T14:32:18.961Z,73.70
2018-12-04T14:34:48.004Z,74.50
2018-12-04T14:37:17.001Z,74.00
2018-12-04T14:39:45.968Z,73.90
2018-12-04T14:42:15.107Z,74.60
2018-12-04T14:44:44.106Z,75.70
2018-12-04T14:47:13.425Z,75.60
2018-12-04T14:49:42.895Z,77.20
2018-12-04T14:52:11.995Z,77.50
2018-12-04T14:54:43.903Z,76.70
2018-12-04T14:57:13.259Z,76.40
2018-12-04T14:59:43.731Z,76.50
2018-12-04T15:02:13.426Z,76.30
2018-12-04T15:04:43.306Z,76.00
2018-12-04T15:07:13.704Z,75.70
2018-12-04T15:09:43.504Z,75.90
2018-12-04T15:12:18.783Z,76.20
2018-12-04T15:14:48.287Z,76.20
2018-12-04T15:17:17.289Z,76.60
2018-12-04T15:19:46.598Z,76.70
2018-12-04T15:22:20.247Z,77.10
2018-12-04T15:24:49.623Z,76.80
2018-12-04T15:27:18.745Z,77.00
2018-12-04T15:29:47.865Z,77.70
2018-12-04T15:32:17.112Z,77.70
2018-12-04T15:34:46.844Z,77.60
2018-12-04T15:37:15.957Z,77.60
2018-12-04T15:39:46.005Z,77.80
2018-12-04T15:42:15.160Z,78.10
2018-12-04T15:44:44.170Z,78.20
2018-12-04T15:47:14.029Z,78.30
2018-12-04T15:49:43.379Z,78.30
2018-12-04T15:52:12.705Z,78.30
2018-12-04T15:54:41.684Z,78.20
2018-12-04T15:57:10.774Z,78.30
2018-12-04T15:59:40.013Z,78.30
2018-12-04T16:02:08.969Z,79.40
2018-12-04T16:04:39.508Z,78.50
2018-12-04T16:07:09.583Z,78.70
2018-12-04T16:09:39.864Z,78.70
2018-12-04T16:12:10.284Z,78.40
2018-12-04T16:14:42.234Z,78.40
2018-12-04T16:17:15.202Z,78.40
2018-12-04T16:19:43.046Z,78.30
2018-12-04T16:22:12.194Z,78.30
2018-12-04T16:24:41.407Z,78.40
2018-12-04T16:27:11.022Z,78.10
2018-12-04T16:29:40.985Z,78.60
2018-12-04T16:32:12.610Z,78.10
2018-12-04T16:34:41.583Z,78.50
2018-12-04T16:37:11.201Z,78.70
2018-12-04T16:39:41.234Z,78.90
2018-12-04T16:42:10.210Z,78.60
2018-12-04T16:44:39.306Z,78.70
2018-12-04T16:47:09.035Z,78.50
2018-12-04T16:49:39.324Z,78.50
2018-12-04T16:52:08.746Z,78.90
2018-12-04T16:54:38.549Z,78.70
2018-12-04T16:57:07.509Z,78.60
2018-12-04T16:59:36.542Z,79.20
2018-12-04T17:02:06.337Z,78.80
2018-12-04T17:04:37.290Z,78.80
2018-12-04T17:07:07.078Z,78.80
2018-12-04T17:09:37.503Z,79.00
2018-12-04T17:12:10.186Z,79.40
2018-12-04T17:14:39.224Z,79.90
2018-12-04T17:17:08.205Z,80.40
2018-12-04T17:19:37.572Z,80.30
2018-12-04T17:22:07.569Z,80.70
2018-12-04T17:24:38.561Z,80.60
2018-12-04T17:27:09.398Z,81.10
2018-12-04T17:29:38.536Z,81.00
2018-12-04T17:32:08.367Z,80.70
2018-12-04T17:34:38.717Z,81.40
2018-12-04T17:37:09.683Z,81.60
2018-12-04T17:39:38.763Z,81.70
2018-12-04T17:42:09.086Z,81.90
2018-12-04T17:44:42.774Z,82.00
2018-12-04T17:47:13.799Z,82.20
2018-12-04T17:49:44.056Z,82.70
2018-12-04T17:52:13.045Z,82.80
2018-12-04T17:54:42.042Z,83.10
2018-12-04T17:57:11.502Z,83.20
2018-12-04T17:59:42.448Z,83.20
2018-12-04T18:02:12.751Z,83.40
2018-12-04T18:04:42.052Z,83.50
2018-12-04T18:07:13.811Z,83.90
2018-12-04T18:09:46.335Z,83.80
2018-12-04T18:12:17.429Z,84.20
2018-12-04T18:14:49.475Z,84.40
2018-12-04T18:17:19.850Z,84.40
2018-12-04T18:19:49.257Z,84.30
2018-12-04T18:22:20.401Z,84.30
2018-12-04T18:24:49.649Z,85.00
2018-12-04T18:27:20.369Z,84.80
2018-12-04T18:29:49.519Z,84.90
2018-12-04T18:32:18.505Z,84.80
2018-12-04T18:34:47.571Z,85.00
2018-12-04T18:37:16.692Z,85.00
2018-12-04T18:39:45.727Z,85.40
2018-12-04T18:42:15.837Z,85.10
2018-12-04T18:44:45.352Z,85.50
2018-12-04T18:47:14.434Z,85.40
2018-12-04T18:49:43.577Z,85.60
2018-12-04T18:52:15.515Z,85.40
2018-12-04T18:54:46.644Z,85.70
2018-12-04T18:57:17.937Z,85.80
2018-12-04T18:59:47.506Z,85.80
2018-12-04T19:02:19.007Z,85.70
2018-12-04T19:07:36.979Z,85.80
2018-12-04T19:10:06.554Z,85.80
2018-12-04T19:12:36.150Z,86.00
2018-12-04T19:15:05.998Z,85.90
2018-12-04T19:17:35.451Z,85.80
2018-12-04T19:20:05.493Z,86.00
2018-12-04T19:22:35.741Z,86.60
2018-12-04T19:25:06.839Z,86.20
2018-12-04T19:27:36.849Z,86.10
2018-12-04T19:30:09.238Z,86.50
2018-12-04T19:32:40.178Z,86.90
2018-12-04T19:35:12.550Z,86.60
2018-12-04T19:37:42.343Z,86.90
2018-12-04T19:40:12.025Z,87.00
2018-12-04T19:42:45.154Z,87.20
2018-12-04T19:45:15.602Z,87.80
2018-12-04T19:47:45.549Z,87.70
2018-12-04T19:50:16.068Z,87.60
2018-12-04T19:52:45.957Z,87.60
2018-12-04T19:55:15.826Z,87.60
2018-12-04T19:57:44.774Z,87.20
2018-12-04T20:00:14.236Z,87.60
2018-12-04T20:02:43.221Z,87.60
2018-12-04T20:05:12.173Z,87.70
2018-12-04T20:07:41.173Z,87.70
2018-12-04T20:10:10.322Z,88.00
2018-12-04T20:12:39.262Z,88.00
2018-12-04T20:15:10.333Z,88.10
2018-12-04T20:17:39.373Z,88.20
2018-12-04T20:20:08.520Z,87.90
2018-12-04T20:22:38.817Z,88.50
2018-12-04T20:25:08.898Z,88.50
2018-12-04T20:27:37.870Z,89.00
2018-12-04T20:30:07.838Z,88.60
2018-12-04T20:32:37.634Z,88.50
2018-12-04T20:35:07.609Z,88.80
2018-12-04T20:37:36.556Z,89.30
2018-12-04T20:40:06.126Z,88.90
2018-12-04T20:42:36.062Z,89.00
2018-12-04T20:45:05.509Z,89.30
2018-12-04T20:47:34.525Z,90.00
2018-12-04T20:50:03.742Z,90.00
2018-12-04T20:52:32.692Z,90.00
2018-12-04T20:55:08.737Z,89.60
2018-12-04T20:57:33.592Z,89.70
2018-12-04T21:00:02.528Z,90.00
2018-12-04T21:02:31.473Z,89.70
2018-12-04T21:05:00.477Z,90.10
2018-12-04T21:07:29.786Z,90.30
2018-12-04T21:09:59.099Z,90.40
2018-12-04T21:12:28.574Z,90.40
2018-12-04T21:14:57.526Z,90.70
2018-12-04T21:17:26.491Z,90.40
2018-12-04T21:19:56.547Z,90.30
2018-12-04T21:22:26.398Z,90.80
2018-12-04T21:24:56.762Z,90.80
2018-12-04T21:27:31.176Z,90.80
2018-12-04T21:30:07.020Z,90.90
2018-12-04T21:32:41.364Z,90.90
2018-12-04T21:35:15.722Z,90.90
2018-12-04T21:37:50.602Z,90.90
2018-12-04T21:40:24.941Z,90.90
2018-12-04T21:43:01.025Z,91.10
2018-12-04T21:46:36.638Z,91.20
2018-12-04T21:49:07.912Z,91.00
2018-12-04T21:51:38.746Z,90.90
2018-12-04T21:54:08.173Z,91.00
2018-12-04T21:56:38.157Z,91.20
2018-12-04T21:59:08.618Z,91.00
2018-12-04T22:01:37.613Z,91.10
2018-12-04T22:04:07.106Z,90.90
2018-12-04T22:06:39.105Z,90.90
2018-12-04T22:09:09.930Z,91.10
2018-12-04T22:11:41.007Z,91.00
2018-12-04T22:14:10.838Z,91.10
2018-12-04T22:16:40.653Z,91.20
2018-12-04T22:19:10.325Z,91.10
2018-12-04T22:21:40.181Z,91.20
2018-12-04T22:24:10.836Z,91.10
2018-12-04T22:26:39.849Z,91.10
2018-12-04T22:29:11.764Z,91.20
2018-12-04T22:31:41.160Z,91.20
2018-12-04T22:34:10.740Z,91.10
2018-12-04T22:36:39.830Z,91.20
2018-12-04T22:39:10.013Z,91.10
2018-12-04T22:41:39.583Z,91.10
2018-12-04T22:44:09.057Z,91.20
2018-12-04T22:46:38.171Z,91.20
2018-12-04T22:49:07.349Z,91.10
2018-12-04T22:51:38.484Z,91.10
2018-12-04T22:54:09.342Z,91.20
2018-12-04T22:56:40.582Z,91.00
2018-12-04T22:59:10.625Z,91.00
2018-12-04T23:01:41.676Z,91.10
2018-12-04T23:04:11.813Z,91.10
2018-12-04T23:06:46.741Z,91.40
2018-12-04T23:09:16.663Z,91.10
2018-12-04T23:11:47.266Z,91.20
2018-12-04T23:14:16.233Z,91.20
2018-12-04T23:16:45.181Z,91.20
2018-12-04T23:19:14.321Z,91.20
2018-12-04T23:21:44.102Z,91.30
2018-12-04T23:24:13.068Z,91.30
2018-12-04T23:26:43.027Z,91.40
2018-12-04T23:29:11.958Z,91.40
2018-12-04T23:31:40.921Z,91.20
2018-12-04T23:34:09.994Z,91.30
2018-12-04T23:36:38.949Z,91.20
2018-12-04T23:39:08.349Z,91.10
2018-12-04T23:41:39.189Z,91.00
2018-12-04T23:44:08.122Z,91.20
2018-12-04T23:46:37.164Z,91.30
2018-12-04T23:49:06.181Z,91.30
2018-12-04T23:51:35.121Z,91.70
2018-12-04T23:54:04.529Z,91.30
2018-12-04T23:56:33.577Z,91.50
2018-12-04T23:59:02.529Z,91.30
